createdAt,value
2024-05-09T00:03:19.062Z,62.67
2024-05-09T00:07:45.277Z,62.54
2024-05-09T00:12:11.387Z,62.73
2024-05-09T00:16:39.860Z,63.12
2024-05-09T00:21:08.356Z,63.50
2024-05-09T00:25:34.079Z,63.58
2024-05-09T00:30:00.049Z,63.46
2024-05-09T00:34:28.440Z,63.18
2024-05-09T00:38:54.259Z,63.40
2024-05-09T00:43:19.935Z,63.25
2024-05-09T00:47:47.240Z,63.22
2024-05-09T00:52:15.865Z,63.45
2024-05-09T00:56:41.966Z,63.53
2024-05-09T01:01:11.200Z,63.82
2024-05-09T01:05:37.248Z,63.37
2024-05-09T01:10:11.498Z,63.73
2024-05-09T01:14:40.176Z,63.48
2024-05-09T01:19:07.520Z,63.64
2024-05-09T01:23:36.911Z,63.58
2024-05-09T01:28:02.727Z,63.54
2024-05-09T01:32:28.845Z,63.17
2024-05-09T01:36:54.486Z,62.81
2024-05-09T01:41:23.214Z,62.73
2024-05-09T01:45:48.840Z,62.59
2024-05-09T01:54:42.213Z,62.66
2024-05-09T01:59:10.900Z,62.65
2024-05-09T02:03:36.634Z,62.55
2024-05-09T02:08:02.642Z,62.23
2024-05-09T02:12:28.721Z,62.52
2024-05-09T02:16:57.465Z,62.51
2024-05-09T02:21:23.126Z,62.48
2024-05-09T02:25:49.696Z,62.45
2024-05-09T02:30:22.748Z,62.30
2024-05-09T02:34:59.717Z,62.23
2024-05-09T02:39:25.485Z,62.14
2024-05-09T02:43:51.704Z,61.93
2024-05-09T02:48:17.431Z,62.60
2024-05-09T02:52:46.147Z,62.25
2024-05-09T02:57:11.812Z,62.33
2024-05-09T03:01:38.070Z,62.12
2024-05-09T03:06:05.046Z,62.31
2024-05-09T03:10:36.590Z,62.20
2024-05-09T03:15:04.816Z,62.15
2024-05-09T03:19:30.983Z,61.98
2024-05-09T03:23:56.799Z,61.90
2024-05-09T03:28:25.538Z,61.96
2024-05-09T03:32:51.327Z,62.08
2024-05-09T03:37:17.841Z,61.76
2024-05-09T03:41:43.465Z,61.83
2024-05-09T03:46:12.020Z,61.83
2024-05-09T03:50:38.067Z,62.22
2024-05-09T03:55:04.177Z,61.91
2024-05-09T03:59:29.971Z,61.93
2024-05-09T04:03:58.711Z,61.82
2024-05-09T04:08:24.405Z,62.04
2024-05-09T04:12:50.456Z,61.89
2024-05-09T04:17:16.480Z,61.84
2024-05-09T04:21:45.192Z,62.10
2024-05-09T04:26:10.902Z,62.54
2024-05-09T04:30:40.083Z,62.48
2024-05-09T04:35:08.143Z,62.42
2024-05-09T04:39:36.714Z,61.90
2024-05-09T04:44:02.362Z,61.93
2024-05-09T04:48:28.625Z,62.26
2024-05-09T04:52:54.405Z,61.58
2024-05-09T04:57:22.967Z,61.53
2024-05-09T05:01:48.599Z,61.40
2024-05-09T05:06:14.222Z,61.38
2024-05-09T05:10:39.838Z,60.79
2024-05-09T05:15:08.910Z,60.89
2024-05-09T05:19:35.155Z,60.51
2024-05-09T05:24:01.127Z,60.39
2024-05-09T05:28:26.782Z,59.97
2024-05-09T05:32:56.333Z,59.71
2024-05-09T05:37:21.985Z,59.83
2024-05-09T05:41:47.839Z,58.34
2024-05-09T05:46:13.442Z,57.75
2024-05-09T05:50:42.019Z,57.12
2024-05-09T05:55:08.292Z,56.98
2024-05-09T05:59:34.349Z,57.17
2024-05-09T06:04:00.146Z,55.57
2024-05-09T06:08:30.428Z,55.57
2024-05-09T06:12:57.123Z,55.41
2024-05-09T06:17:22.844Z,55.62
2024-05-09T06:21:49.020Z,54.04
2024-05-09T06:26:17.637Z,54.85
2024-05-09T06:30:43.559Z,54.02
2024-05-09T06:35:09.946Z,53.59
2024-05-09T06:39:35.574Z,53.62
2024-05-09T06:44:04.465Z,54.38
2024-05-09T06:48:30.257Z,53.96
2024-05-09T06:52:56.468Z,52.90
2024-05-09T06:57:23.189Z,52.84
2024-05-09T07:01:52.021Z,52.23
2024-05-09T07:06:17.831Z,51.90
2024-05-09T07:10:44.540Z,52.43
2024-05-09T07:15:10.670Z,52.67
2024-05-09T07:19:39.381Z,51.97
2024-05-09T07:24:05.593Z,51.72
2024-05-09T07:28:31.495Z,51.38
2024-05-09T07:32:57.277Z,51.13
2024-05-09T07:37:25.948Z,51.18
2024-05-09T07:41:51.550Z,51.42
2024-05-09T07:47:14.231Z,50.48
2024-05-09T07:55:35.206Z,49.63
2024-05-09T08:00:00.829Z,49.53
2024-05-09T08:04:26.978Z,48.88
2024-05-09T08:08:53.225Z,48.57
2024-05-09T08:13:22.138Z,48.60
2024-05-09T08:17:47.857Z,49.06
2024-05-09T08:22:13.927Z,48.40
2024-05-09T08:26:40.053Z,47.99
2024-05-09T08:31:08.803Z,46.77
2024-05-09T08:35:34.886Z,46.43
2024-05-09T08:40:01.508Z,46.01
2024-05-09T08:44:27.183Z,45.08
2024-05-09T08:48:59.080Z,43.44
2024-05-09T08:53:24.806Z,43.75
2024-05-09T08:57:51.500Z,44.23
2024-05-09T09:02:17.615Z,43.07
2024-05-09T09:06:47.598Z,42.56
2024-05-09T09:11:13.819Z,42.53
2024-05-09T09:15:50.650Z,42.19
2024-05-09T09:20:23.225Z,42.16
2024-05-09T09:24:58.210Z,41.17
2024-05-09T09:29:24.470Z,41.91
2024-05-09T09:33:50.778Z,41.30
2024-05-09T09:38:21.486Z,42.04
2024-05-09T09:42:53.051Z,41.13
2024-05-09T09:47:19.912Z,41.21
2024-05-09T09:51:46.586Z,41.21
2024-05-09T09:56:14.157Z,40.89
2024-05-09T10:00:43.070Z,40.98
2024-05-09T10:05:10.169Z,40.01
2024-05-09T10:09:36.318Z,40.09
2024-05-09T10:14:02.474Z,40.13
2024-05-09T10:18:40.704Z,40.20
2024-05-09T10:23:07.463Z,39.98
2024-05-09T10:27:34.294Z,39.77
2024-05-09T10:32:03.718Z,39.87
2024-05-09T10:36:32.873Z,39.27
2024-05-09T10:41:00.087Z,39.01
2024-05-09T10:45:25.999Z,39.03
2024-05-09T10:49:52.834Z,39.17
2024-05-09T10:54:21.512Z,38.73
2024-05-09T10:58:48.138Z,39.78
2024-05-09T11:03:16.955Z,38.98
2024-05-09T11:07:42.670Z,38.70
2024-05-09T11:12:12.295Z,38.57
2024-05-09T11:16:38.008Z,38.41
2024-05-09T11:21:04.097Z,38.29
2024-05-09T11:25:33.087Z,38.14
2024-05-09T11:30:02.388Z,37.79
2024-05-09T11:34:29.542Z,37.70
2024-05-09T11:38:55.691Z,36.81
2024-05-09T11:43:21.410Z,37.49
2024-05-09T11:47:50.281Z,37.63
2024-05-09T11:52:16.043Z,37.24
2024-05-09T11:56:42.068Z,36.94
2024-05-09T12:01:08.034Z,37.02
2024-05-09T12:05:37.158Z,37.54
2024-05-09T12:10:04.677Z,36.75
2024-05-09T12:14:32.067Z,35.68
2024-05-09T12:18:58.893Z,35.93
2024-05-09T12:23:27.462Z,35.98
2024-05-09T12:27:53.219Z,37.38
2024-05-09T12:32:19.272Z,37.12
2024-05-09T12:36:45.348Z,36.83
2024-05-09T12:41:14.009Z,36.41
2024-05-09T12:45:40.427Z,36.82
2024-05-09T12:50:13.415Z,36.84
2024-05-09T12:54:44.804Z,37.37
2024-05-09T12:59:13.680Z,37.33
2024-05-09T13:03:39.459Z,36.89
2024-05-09T13:08:06.165Z,36.97
2024-05-09T13:12:31.739Z,37.59
2024-05-09T13:17:00.445Z,36.51
2024-05-09T13:21:26.057Z,37.06
2024-05-09T13:25:52.218Z,37.74
2024-05-09T13:30:26.068Z,38.15
2024-05-09T13:35:02.211Z,37.84
2024-05-09T13:39:28.168Z,37.18
2024-05-09T13:43:54.478Z,37.29
2024-05-09T13:48:20.259Z,37.51
2024-05-09T13:52:48.961Z,37.51
2024-05-09T13:57:14.622Z,37.03
2024-05-09T14:01:40.660Z,37.60
2024-05-09T14:06:08.747Z,36.86
2024-05-09T14:10:44.722Z,36.22
2024-05-09T14:15:11.338Z,36.82
2024-05-09T14:19:37.240Z,36.68
2024-05-09T14:24:03.719Z,36.10
2024-05-09T14:28:32.382Z,36.14
2024-05-09T14:32:58.114Z,36.25
2024-05-09T14:37:24.231Z,36.88
2024-05-09T14:41:50.280Z,36.58
2024-05-09T14:46:19.520Z,36.27
2024-05-09T14:50:45.545Z,37.11
2024-05-09T14:55:12.420Z,36.77
2024-05-09T14:59:38.071Z,35.38
2024-05-09T15:04:06.955Z,35.73
2024-05-09T15:08:32.676Z,35.86
2024-05-09T15:12:58.761Z,36.24
2024-05-09T15:17:24.551Z,36.46
2024-05-09T15:21:53.282Z,36.46
2024-05-09T15:26:19.297Z,36.62
2024-05-09T15:30:46.657Z,36.11
2024-05-09T15:35:13.324Z,36.47
2024-05-09T15:39:42.828Z,36.49
2024-05-09T15:44:08.830Z,36.64
2024-05-09T15:48:35.356Z,37.15
2024-05-09T15:53:01.295Z,36.93
2024-05-09T15:57:29.827Z,36.99
2024-05-09T16:01:56.203Z,36.85
2024-05-09T16:06:22.268Z,37.10
2024-05-09T16:10:49.704Z,36.88
2024-05-09T16:15:18.444Z,36.94
2024-05-09T16:19:44.023Z,36.68
2024-05-09T16:24:10.324Z,36.06
2024-05-09T16:28:36.790Z,36.13
2024-05-09T16:33:05.923Z,36.59
2024-05-09T16:37:31.815Z,37.37
2024-05-09T16:41:57.836Z,37.78
2024-05-09T16:46:24.309Z,37.82
2024-05-09T16:50:52.952Z,37.87
2024-05-09T16:55:19.322Z,37.88
2024-05-09T16:59:45.673Z,37.71
2024-05-09T17:04:11.524Z,38.45
2024-05-09T17:08:41.623Z,38.13
2024-05-09T17:13:08.386Z,38.18
2024-05-09T17:17:34.896Z,38.21
2024-05-09T17:22:00.642Z,38.45
2024-05-09T17:26:29.391Z,39.28
2024-05-09T17:30:54.978Z,39.89
2024-05-09T17:35:20.916Z,40.44
2024-05-09T17:39:46.918Z,40.57
2024-05-09T17:44:15.727Z,41.00
2024-05-09T17:48:42.217Z,41.50
2024-05-09T17:53:08.776Z,41.75
2024-05-09T17:57:34.536Z,42.18
2024-05-09T18:02:03.356Z,42.43
2024-05-09T18:06:29.040Z,42.90
2024-05-09T18:10:55.734Z,42.70
2024-05-09T18:15:22.797Z,42.92
2024-05-09T18:19:51.472Z,42.91
2024-05-09T18:24:17.071Z,43.08
2024-05-09T18:28:43.205Z,42.86
2024-05-09T18:33:10.006Z,43.09
2024-05-09T18:37:39.158Z,43.27
2024-05-09T18:42:04.756Z,43.18
2024-05-09T18:46:30.937Z,43.43
2024-05-09T18:50:57.103Z,44.08
2024-05-09T18:55:25.636Z,44.81
2024-05-09T18:59:51.221Z,45.18
2024-05-09T19:04:19.093Z,45.41
2024-05-09T19:08:45.165Z,45.58
2024-05-09T19:13:14.624Z,45.84
2024-05-09T19:17:41.158Z,45.86
2024-05-09T19:22:10.303Z,45.90
2024-05-09T19:26:35.995Z,46.43
2024-05-09T19:31:05.017Z,46.30
2024-05-09T19:35:30.716Z,46.20
2024-05-09T19:39:56.655Z,46.22
2024-05-09T19:44:22.594Z,46.39
2024-05-09T19:48:51.456Z,46.60
2024-05-09T19:53:18.187Z,46.70
2024-05-09T19:57:44.922Z,46.70
2024-05-09T20:02:10.612Z,46.41
2024-05-09T20:06:40.788Z,46.95
2024-05-09T20:11:06.576Z,47.41
2024-05-09T20:15:32.615Z,47.56
2024-05-09T20:19:58.281Z,47.99
2024-05-09T20:24:26.845Z,47.94
2024-05-09T20:28:52.417Z,48.04
2024-05-09T20:33:18.479Z,48.44
2024-05-09T20:37:44.188Z,48.57
2024-05-09T20:42:12.778Z,48.94
2024-05-09T20:46:38.707Z,49.27
2024-05-09T20:51:04.621Z,49.27
2024-05-09T20:55:30.669Z,49.50
2024-05-09T20:59:59.337Z,49.52
2024-05-09T21:04:25.110Z,49.86
2024-05-09T21:08:51.137Z,50.26
2024-05-09T21:13:16.767Z,50.36
2024-05-09T21:17:45.503Z,50.43
2024-05-09T21:22:11.182Z,50.94
2024-05-09T21:26:37.943Z,51.26
2024-05-09T21:31:03.563Z,51.22
2024-05-09T21:35:32.224Z,51.95
2024-05-09T21:39:57.833Z,51.66
2024-05-09T21:44:23.849Z,52.02
2024-05-09T21:48:49.869Z,51.90
2024-05-09T21:53:18.465Z,52.22
2024-05-09T21:57:44.431Z,52.23
2024-05-09T22:02:10.568Z,52.68
2024-05-09T22:06:36.216Z,52.97
2024-05-09T22:11:04.956Z,52.94
2024-05-09T22:15:30.632Z,53.44
2024-05-09T22:19:57.007Z,53.79
2024-05-09T22:24:22.652Z,53.32
2024-05-09T22:28:51.362Z,53.51
2024-05-09T22:33:17.802Z,53.58
2024-05-09T22:37:43.986Z,53.76
2024-05-09T22:42:09.731Z,54.10
2024-05-09T22:46:38.423Z,54.44
2024-05-09T22:51:04.196Z,54.53
2024-05-09T22:55:30.610Z,54.47
2024-05-09T22:59:56.289Z,54.92
2024-05-09T23:04:25.047Z,54.64
2024-05-09T23:08:50.716Z,55.01
2024-05-09T23:13:16.820Z,55.08
2024-05-09T23:17:42.596Z,55.28
2024-05-09T23:22:11.432Z,55.53
2024-05-09T23:26:37.347Z,55.24
2024-05-09T23:31:03.396Z,55.76
2024-05-09T23:35:29.315Z,55.89
2024-05-09T23:39:57.937Z,55.43
2024-05-09T23:44:23.622Z,55.59
2024-05-09T23:48:49.598Z,56.03
2024-05-09T23:53:15.298Z,55.90
2024-05-09T23:57:44.736Z,55.89
